Time;durP1;ratioP1;P1;durP2;ratioP2;P2;SDS_P1;SDS_P2;PMS_P1;PMS_P2;Temp;Humidity;BMP_temperature;BMP_pressure;BME280_temperature;BME280_humidity;BME280_pressure;Samples;Min_cycle;Max_cycle;Signal;HPM_P1;HPM_P2
2023/06/29 00:00:21;;;;;;;;;42.00;35.67;;;;;;;;5102672;27;45412;-78
2023/06/29 00:02:49;;;;;;;;;42.33;35.00;;;;;;;;5101942;27;45370;-77
2023/06/29 00:05:15;;;;;;;;;42.67;36.67;;;;;;;;5101662;27;45161;-78
2023/06/29 00:07:41;;;;;;;;;43.33;35.67;;;;;;;;5083446;27;47087;-78
2023/06/29 00:10:07;;;;;;;;;42.33;36.00;;;;;;;;5101728;27;45299;-77
2023/06/29 00:12:32;;;;;;;;;41.33;35.33;;;;;;;;5102453;27;45382;-77
2023/06/29 00:14:58;;;;;;;;;43.00;35.00;;;;;;;;5101967;27;45311;-78
2023/06/29 00:17:23;;;;;;;;;39.33;33.67;;;;;;;;5102306;27;45618;-77
2023/06/29 00:19:48;;;;;;;;;43.00;35.33;;;;;;;;5102408;27;45437;-77
2023/06/29 00:22:14;;;;;;;;;43.00;37.33;;;;;;;;5102344;27;45306;-78
2023/06/29 00:24:43;;;;;;;;;43.33;36.00;;;;;;;;5102377;27;45421;-77
2023/06/29 00:27:11;;;;;;;;;43.33;37.00;;;;;;;;5101553;27;46284;-78
2023/06/29 00:29:37;;;;;;;;;42.33;35.67;;;;;;;;5089439;27;45284;-78
2023/06/29 00:32:02;;;;;;;;;45.67;37.33;;;;;;;;5080421;28;45451;-77
2023/06/29 00:34:27;;;;;;;;;42.67;36.33;;;;;;;;5081144;28;45388;-77
2023/06/29 00:36:52;;;;;;;;;41.33;34.33;;;;;;;;5081029;28;46325;-77
2023/06/29 00:39:17;;;;;;;;;39.33;33.67;;;;;;;;5063061;28;45382;-77
2023/06/29 00:41:43;;;;;;;;;43.67;36.33;;;;;;;;5062284;28;45393;-78
2023/06/29 00:44:08;;;;;;;;;43.67;37.33;;;;;;;;5080523;28;45442;-77
2023/06/29 00:46:33;;;;;;;;;45.00;38.33;;;;;;;;5062622;28;48154;-78
2023/06/29 00:48:58;;;;;;;;;45.00;37.33;;;;;;;;5080781;28;45345;-78
2023/06/29 00:51:23;;;;;;;;;42.67;36.67;;;;;;;;5062695;28;45360;-78
2023/06/29 00:53:49;;;;;;;;;43.00;36.00;;;;;;;;5080649;28;45288;-78
2023/06/29 00:56:14;;;;;;;;;42.00;35.00;;;;;;;;5080159;28;45404;-78
2023/06/29 00:58:39;;;;;;;;;43.00;36.33;;;;;;;;5080603;28;45309;-78
2023/06/29 01:01:04;;;;;;;;;41.33;35.67;;;;;;;;5080580;28;45325;-78
2023/06/29 01:03:30;;;;;;;;;46.33;38.33;;;;;;;;5062594;28;46405;-78
2023/06/29 01:06:00;;;;;;;;;43.67;37.00;;;;;;;;5062039;28;47211;-78
2023/06/29 01:08:29;;;;;;;;;45.00;37.67;;;;;;;;5080632;28;45309;-78
2023/06/29 01:10:56;;;;;;;;;41.33;34.67;;;;;;;;5080651;28;45371;-78
2023/06/29 01:13:22;;;;;;;;;41.33;35.33;;;;;;;;5080471;28;45410;-78
2023/06/29 01:15:49;;;;;;;;;43.00;36.33;;;;;;;;5080453;28;45322;-78
2023/06/29 01:18:16;;;;;;;;;44.00;36.67;;;;;;;;5083981;28;45224;-77
2023/06/29 01:20:42;;;;;;;;;46.33;37.33;;;;;;;;5084137;28;45203;-78
2023/06/29 01:23:10;;;;;;;;;41.67;35.00;;;;;;;;5084106;28;45521;-78
2023/06/29 01:25:36;;;;;;;;;44.00;36.67;;;;;;;;5084530;28;46157;-78
2023/06/29 01:28:05;;;;;;;;;41.33;35.33;;;;;;;;5066262;28;45410;-78
2023/06/29 01:30:31;;;;;;;;;46.00;37.33;;;;;;;;5103570;27;45293;-77
2023/06/29 01:32:56;;;;;;;;;42.00;35.33;;;;;;;;5086321;27;46044;-76
2023/06/29 01:35:21;;;;;;;;;42.00;36.33;;;;;;;;5104060;27;46113;-77
2023/06/29 01:38:01;;;;;;;;;44.33;37.67;;;;;;;;5104230;27;45251;-77
2023/06/29 01:40:28;;;;;;;;;45.67;37.00;;;;;;;;5104479;27;45388;-77
2023/06/29 01:42:56;;;;;;;;;42.33;36.67;;;;;;;;5103647;27;45969;-77
2023/06/29 01:45:22;;;;;;;;;47.33;38.00;;;;;;;;5103951;27;46421;-77
2023/06/29 01:47:47;;;;;;;;;42.67;36.33;;;;;;;;5104437;27;45451;-77
2023/06/29 01:50:13;;;;;;;;;44.33;37.33;;;;;;;;5105170;27;45313;-77
2023/06/29 01:52:38;;;;;;;;;43.33;37.33;;;;;;;;5104992;27;45509;-77
2023/06/29 01:55:03;;;;;;;;;42.33;36.00;;;;;;;;5104941;27;46111;-78
2023/06/29 01:57:29;;;;;;;;;42.67;35.67;;;;;;;;5086459;27;45261;-79
2023/06/29 01:59:54;;;;;;;;;41.33;36.00;;;;;;;;5098699;27;45361;-77
2023/06/29 02:02:19;;;;;;;;;45.33;38.00;;;;;;;;5083731;28;45328;-77
2023/06/29 02:04:44;;;;;;;;;45.67;38.00;;;;;;;;5085315;28;45537;-77
2023/06/29 02:07:10;;;;;;;;;45.33;38.00;;;;;;;;5066779;28;45605;-77
2023/06/29 02:09:35;;;;;;;;;45.00;38.33;;;;;;;;5065978;28;45416;-77
2023/06/29 02:12:00;;;;;;;;;42.67;35.67;;;;;;;;5083891;28;45532;-77
2023/06/29 02:14:28;;;;;;;;;44.00;37.33;;;;;;;;5065807;28;47237;-77
2023/06/29 02:16:53;;;;;;;;;40.33;32.67;;;;;;;;5083159;28;45225;-77
2023/06/29 02:19:19;;;;;;;;;42.33;36.00;;;;;;;;5083938;28;45262;-77
2023/06/29 02:21:44;;;;;;;;;42.67;36.33;;;;;;;;5083709;28;45378;-77
2023/06/29 02:24:09;;;;;;;;;45.33;38.67;;;;;;;;5083545;28;45227;-77
2023/06/29 02:26:34;;;;;;;;;42.33;35.00;;;;;;;;5083630;28;45385;-77
2023/06/29 02:28:59;;;;;;;;;42.67;37.00;;;;;;;;5088413;27;45149;-78
2023/06/29 02:31:24;;;;;;;;;46.67;38.67;;;;;;;;5085060;27;47299;-78
2023/06/29 02:33:50;;;;;;;;;42.00;35.33;;;;;;;;5085657;27;48502;-78
2023/06/29 02:36:15;;;;;;;;;42.33;34.67;;;;;;;;5103402;27;45247;-78
2023/06/29 02:38:41;;;;;;;;;43.00;36.33;;;;;;;;5105126;27;45385;-77
2023/06/29 02:41:06;;;;;;;;;43.00;35.33;;;;;;;;5103031;27;45307;-77
2023/06/29 02:43:31;;;;;;;;;45.67;37.33;;;;;;;;5102436;27;45402;-78
2023/06/29 02:45:57;;;;;;;;;45.00;37.33;;;;;;;;5103280;27;45266;-78
2023/06/29 02:48:22;;;;;;;;;42.67;36.67;;;;;;;;5103721;27;45254;-78
2023/06/29 02:50:47;;;;;;;;;45.00;38.33;;;;;;;;5103382;27;45302;-78
2023/06/29 02:53:16;;;;;;;;;44.33;37.00;;;;;;;;5084634;27;48293;-78
2023/06/29 02:55:41;;;;;;;;;46.00;38.33;;;;;;;;5103324;27;45385;-78
2023/06/29 02:58:09;;;;;;;;;47.00;37.33;;;;;;;;5085330;27;45414;-77
2023/06/29 03:00:34;;;;;;;;;45.33;38.00;;;;;;;;5103171;27;45301;-77
2023/06/29 03:02:59;;;;;;;;;41.67;34.00;;;;;;;;5084124;27;47111;-77
2023/06/29 03:05:24;;;;;;;;;43.67;37.00;;;;;;;;5103426;27;45392;-78
2023/06/29 03:07:50;;;;;;;;;46.00;37.50;;;;;;;;5103642;27;45200;-78
2023/06/29 03:10:15;;;;;;;;;47.00;39.33;;;;;;;;5103165;27;45214;-78
2023/06/29 03:12:41;;;;;;;;;43.00;36.33;;;;;;;;5102965;27;46206;-78
2023/06/29 03:15:09;;;;;;;;;42.00;36.00;;;;;;;;5102705;27;45222;-77
2023/06/29 03:17:34;;;;;;;;;45.00;37.33;;;;;;;;5102891;27;45317;-78
2023/06/29 03:20:00;;;;;;;;;45.67;37.33;;;;;;;;5103175;27;45377;-77
2023/06/29 03:22:26;;;;;;;;;40.00;33.00;;;;;;;;5084574;27;48338;-77
2023/06/29 03:24:51;;;;;;;;;44.33;37.33;;;;;;;;5102804;27;45335;-77
2023/06/29 03:27:17;;;;;;;;;44.00;36.00;;;;;;;;5084704;27;45351;-77
2023/06/29 03:29:42;;;;;;;;;43.33;36.00;;;;;;;;5072341;28;47213;-78
2023/06/29 03:32:07;;;;;;;;;44.00;37.00;;;;;;;;5082869;28;45394;-78
2023/06/29 03:34:32;;;;;;;;;42.33;35.67;;;;;;;;5064799;28;45290;-78
2023/06/29 03:36:57;;;;;;;;;45.67;38.33;;;;;;;;5083272;28;45600;-78
2023/06/29 03:39:23;;;;;;;;;42.33;35.67;;;;;;;;5083554;28;45390;-78
2023/06/29 03:41:48;;;;;;;;;44.00;35.33;;;;;;;;5082666;28;46247;-77
2023/06/29 03:44:13;;;;;;;;;43.00;35.00;;;;;;;;5083600;28;45180;-78
2023/06/29 03:46:38;;;;;;;;;44.33;35.67;;;;;;;;5084350;28;45432;-77
2023/06/29 03:49:04;;;;;;;;;46.67;37.67;;;;;;;;5083354;28;45212;-78
2023/06/29 03:51:29;;;;;;;;;46.67;38.67;;;;;;;;5083916;28;46058;-78
2023/06/29 03:53:54;;;;;;;;;45.00;37.00;;;;;;;;5082665;28;45344;-78
2023/06/29 03:56:19;;;;;;;;;46.67;39.00;;;;;;;;5064467;28;45302;-78
2023/06/29 03:58:44;;;;;;;;;44.67;37.67;;;;;;;;5081890;28;45215;-78
2023/06/29 04:01:09;;;;;;;;;45.67;36.33;;;;;;;;5082731;28;45280;-78
2023/06/29 04:03:35;;;;;;;;;45.00;38.00;;;;;;;;5081508;28;45194;-78
2023/06/29 04:06:00;;;;;;;;;45.67;38.00;;;;;;;;5063524;28;45290;-78
2023/06/29 04:08:26;;;;;;;;;43.67;37.00;;;;;;;;5082033;28;45435;-79
2023/06/29 04:10:52;;;;;;;;;46.33;38.00;;;;;;;;5082737;28;45157;-79
2023/06/29 04:13:17;;;;;;;;;44.00;37.00;;;;;;;;5063024;28;45904;-79
2023/06/29 04:15:43;;;;;;;;;46.33;38.00;;;;;;;;5063749;28;45234;-78
2023/06/29 04:18:08;;;;;;;;;44.33;36.67;;;;;;;;5081812;28;45390;-79
2023/06/29 04:20:33;;;;;;;;;44.67;37.33;;;;;;;;5062886;28;47315;-79
2023/06/29 04:22:58;;;;;;;;;46.33;38.33;;;;;;;;5062955;28;45670;-78
2023/06/29 04:25:24;;;;;;;;;45.00;37.00;;;;;;;;5064040;28;45348;-78
2023/06/29 04:27:49;;;;;;;;;36.00;32.33;;;;;;;;5082021;28;45502;-78
2023/06/29 04:30:17;;;;;;;;;44.67;37.67;;;;;;;;5079218;27;47485;-78
2023/06/29 04:32:43;;;;;;;;;40.67;33.00;;;;;;;;5101900;27;45231;-78
2023/06/29 04:35:09;;;;;;;;;43.33;36.67;;;;;;;;5102146;27;45426;-79
2023/06/29 04:37:41;;;;;;;;;42.67;35.00;;;;;;;;5101784;27;45644;-78
2023/06/29 04:40:09;;;;;;;;;43.33;36.00;;;;;;;;5082156;27;48209;-78
2023/06/29 04:42:43;;;;;;;;;42.67;35.67;;;;;;;;5088818;27;45289;-79
2023/06/29 04:45:09;;;;;;;;;43.67;36.67;;;;;;;;5079519;28;45286;-79
2023/06/29 04:47:35;;;;;;;;;45.33;38.67;;;;;;;;5061385;28;46242;-78
2023/06/29 04:50:00;;;;;;;;;45.00;36.33;;;;;;;;5079886;28;45371;-79
2023/06/29 04:52:26;;;;;;;;;45.33;37.67;;;;;;;;5079033;28;45270;-78
2023/06/29 04:54:51;;;;;;;;;46.33;39.00;;;;;;;;5080060;28;45271;-78
2023/06/29 04:57:16;;;;;;;;;45.67;38.00;;;;;;;;5079910;28;45471;-78
2023/06/29 04:59:42;;;;;;;;;44.67;37.00;;;;;;;;5061530;28;46206;-78
2023/06/29 05:02:07;;;;;;;;;44.67;38.00;;;;;;;;5079704;28;45417;-78
2023/06/29 05:04:32;;;;;;;;;43.67;36.67;;;;;;;;5080129;28;45291;-78
2023/06/29 05:06:57;;;;;;;;;50.33;40.00;;;;;;;;5079784;28;45287;-78
2023/06/29 05:09:23;;;;;;;;;42.00;36.00;;;;;;;;5078733;28;46127;-78
2023/06/29 05:11:48;;;;;;;;;45.00;37.33;;;;;;;;5077026;28;45446;-79
2023/06/29 05:14:13;;;;;;;;;44.33;36.00;;;;;;;;5080061;28;45395;-79
2023/06/29 05:16:38;;;;;;;;;42.67;36.33;;;;;;;;5079724;28;46029;-77
2023/06/29 05:19:04;;;;;;;;;41.67;35.33;;;;;;;;5079943;28;45311;-78
2023/06/29 05:21:29;;;;;;;;;42.67;35.67;;;;;;;;5080084;28;45424;-78
2023/06/29 05:23:54;;;;;;;;;47.33;38.33;;;;;;;;5080130;28;45783;-78
2023/06/29 05:26:20;;;;;;;;;36.33;32.67;;;;;;;;5079257;28;46114;-77
2023/06/29 05:28:45;;;;;;;;;44.33;37.33;;;;;;;;5079354;28;45306;-76
2023/06/29 05:31:10;;;;;;;;;44.67;38.00;;;;;;;;5059618;28;45397;-76
2023/06/29 05:33:38;;;;;;;;;43.67;35.33;;;;;;;;5059278;28;45382;-77
2023/06/29 05:36:03;;;;;;;;;45.00;37.33;;;;;;;;5060229;28;46766;-76
2023/06/29 05:38:29;;;;;;;;;41.67;33.33;;;;;;;;5060730;28;48744;-77
2023/06/29 05:40:54;;;;;;;;;43.00;36.67;;;;;;;;5079288;28;45267;-77
2023/06/29 05:43:21;;;;;;;;;41.67;35.33;;;;;;;;5081111;28;45252;-77
2023/06/29 05:45:49;;;;;;;;;44.33;37.00;;;;;;;;5060837;28;46458;-75
2023/06/29 05:48:14;;;;;;;;;43.33;36.67;;;;;;;;5060963;28;45644;-76
2023/06/29 05:50:39;;;;;;;;;44.67;35.00;;;;;;;;5079109;28;45367;-76
2023/06/29 05:53:05;;;;;;;;;44.33;37.00;;;;;;;;5060195;28;45393;-77
2023/06/29 05:55:30;;;;;;;;;43.67;36.67;;;;;;;;5060907;28;45519;-76
2023/06/29 05:57:55;;;;;;;;;46.00;38.67;;;;;;;;5060717;28;46572;-76
2023/06/29 06:00:23;;;;;;;;;47.67;38.33;;;;;;;;5060818;28;45365;-75
2023/06/29 06:02:48;;;;;;;;;45.33;37.00;;;;;;;;5054102;28;45363;-75
2023/06/29 06:05:14;;;;;;;;;42.33;35.33;;;;;;;;5062014;28;45255;-75
2023/06/29 06:07:39;;;;;;;;;42.00;35.33;;;;;;;;5063503;28;46772;-75
2023/06/29 06:10:04;;;;;;;;;43.00;36.33;;;;;;;;5063600;28;45518;-77
2023/06/29 06:12:33;;;;;;;;;44.33;37.67;;;;;;;;5082082;28;45372;-76
2023/06/29 06:14:58;;;;;;;;;46.00;38.00;;;;;;;;5064233;28;45795;-75
2023/06/29 06:17:24;;;;;;;;;44.00;37.33;;;;;;;;5063935;28;48182;-76
2023/06/29 06:19:49;;;;;;;;;45.67;39.00;;;;;;;;5064167;28;45407;-75
2023/06/29 06:22:14;;;;;;;;;48.67;38.67;;;;;;;;5064051;28;45311;-75
2023/06/29 06:24:40;;;;;;;;;47.67;39.00;;;;;;;;5063933;28;45284;-76
2023/06/29 06:27:05;;;;;;;;;46.33;36.67;;;;;;;;5082170;28;46297;-75
2023/06/29 06:29:30;;;;;;;;;42.67;35.33;;;;;;;;5074118;27;45467;-75
2023/06/29 06:31:56;;;;;;;;;44.67;37.67;;;;;;;;5084213;27;45323;-75
2023/06/29 06:34:21;;;;;;;;;42.33;35.67;;;;;;;;5080831;27;45529;-75
2023/06/29 06:36:47;;;;;;;;;42.00;36.00;;;;;;;;5082140;27;45438;-78
2023/06/29 06:39:13;;;;;;;;;39.33;32.67;;;;;;;;5078154;27;45448;-77
2023/06/29 06:41:38;;;;;;;;;44.67;37.00;;;;;;;;5080051;28;45333;-77
2023/06/29 06:44:03;;;;;;;;;41.67;34.67;;;;;;;;5062657;28;45454;-77
2023/06/29 06:46:29;;;;;;;;;44.33;37.67;;;;;;;;5081070;28;46500;-77
2023/06/29 06:48:54;;;;;;;;;42.67;36.67;;;;;;;;5081927;28;45282;-73
2023/06/29 06:51:19;;;;;;;;;40.67;33.33;;;;;;;;5063494;28;45306;-77
2023/06/29 06:53:44;;;;;;;;;45.67;38.67;;;;;;;;5079369;28;45443;-77
2023/06/29 06:56:10;;;;;;;;;43.00;36.33;;;;;;;;5062488;28;47326;-73
2023/06/29 06:58:35;;;;;;;;;44.00;37.33;;;;;;;;5063073;28;45436;-75
2023/06/29 07:01:00;;;;;;;;;45.33;38.33;;;;;;;;5059948;28;45980;-77
2023/06/29 07:03:25;;;;;;;;;44.67;36.67;;;;;;;;5079083;28;45253;-76
2023/06/29 07:05:53;;;;;;;;;47.33;40.00;;;;;;;;5062555;28;48104;-76
2023/06/29 07:08:18;;;;;;;;;43.67;36.00;;;;;;;;5062559;28;45371;-76
2023/06/29 07:10:44;;;;;;;;;43.33;34.67;;;;;;;;5062903;28;45891;-76
2023/06/29 07:13:09;;;;;;;;;43.67;37.00;;;;;;;;5063087;28;46510;-76
2023/06/29 07:15:34;;;;;;;;;43.00;36.33;;;;;;;;5080547;28;45354;-76
2023/06/29 07:18:00;;;;;;;;;43.00;36.67;;;;;;;;5081600;28;45363;-76
2023/06/29 07:20:25;;;;;;;;;42.33;35.33;;;;;;;;5061971;28;45486;-77
2023/06/29 07:22:51;;;;;;;;;44.33;35.00;;;;;;;;5062962;28;45265;-76
2023/06/29 07:25:16;;;;;;;;;45.00;38.00;;;;;;;;5059866;28;45717;-78
2023/06/29 07:27:42;;;;;;;;;42.33;36.33;;;;;;;;5057046;28;45466;-76
2023/06/29 07:30:08;;;;;;;;;43.33;36.00;;;;;;;;5054232;28;45726;-78
2023/06/29 07:32:33;;;;;;;;;43.33;36.33;;;;;;;;5061247;28;45452;-76
2023/06/29 07:34:59;;;;;;;;;42.00;34.67;;;;;;;;5058283;28;45399;-78
2023/06/29 07:37:24;;;;;;;;;45.67;36.33;;;;;;;;5080212;27;45230;-78
2023/06/29 07:39:50;;;;;;;;;38.00;34.00;;;;;;;;5062445;28;45417;-77
2023/06/29 07:42:15;;;;;;;;;43.33;36.00;;;;;;;;5057545;28;45266;-77
2023/06/29 07:44:40;;;;;;;;;42.67;34.33;;;;;;;;5055039;28;46398;-77
2023/06/29 07:47:06;;;;;;;;;39.67;33.33;;;;;;;;5040020;28;45283;-77
2023/06/29 07:49:31;;;;;;;;;41.00;35.00;;;;;;;;5039142;28;45817;-76
2023/06/29 07:51:57;;;;;;;;;42.67;35.00;;;;;;;;5038831;28;45395;-76
2023/06/29 07:54:22;;;;;;;;;37.00;32.00;;;;;;;;5039110;28;47118;-75
2023/06/29 07:56:48;;;;;;;;;41.33;35.67;;;;;;;;5039075;28;45562;-77
2023/06/29 07:59:13;;;;;;;;;36.67;33.00;;;;;;;;5038857;28;45383;-77
2023/06/29 08:01:39;;;;;;;;;40.67;34.00;;;;;;;;5038497;28;45521;-76
2023/06/29 08:04:07;;;;;;;;;41.33;35.33;;;;;;;;5038909;28;45598;-77
2023/06/29 08:06:33;;;;;;;;;41.33;35.00;;;;;;;;5038749;28;45340;-77
2023/06/29 08:09:00;;;;;;;;;42.00;36.00;;;;;;;;5038886;28;45379;-77
2023/06/29 08:11:25;;;;;;;;;41.00;35.00;;;;;;;;5038741;28;46334;-77
2023/06/29 08:13:51;;;;;;;;;38.33;33.00;;;;;;;;5038227;28;45367;-77
2023/06/29 08:16:16;;;;;;;;;34.00;31.00;;;;;;;;5038618;28;45335;-75
2023/06/29 08:18:41;;;;;;;;;40.67;34.67;;;;;;;;5038984;28;45345;-77
2023/06/29 08:21:07;;;;;;;;;42.33;35.33;;;;;;;;5035959;28;45223;-79
2023/06/29 08:23:33;;;;;;;;;42.67;36.00;;;;;;;;5032015;28;45528;-77
2023/06/29 08:25:58;;;;;;;;;37.67;32.00;;;;;;;;5032248;28;45474;-78
2023/06/29 08:28:23;;;;;;;;;39.67;33.33;;;;;;;;5037134;28;45391;-78
2023/06/29 08:30:49;;;;;;;;;32.00;30.67;;;;;;;;5058470;28;47512;-77
2023/06/29 08:33:14;;;;;;;;;37.33;32.67;;;;;;;;5059870;28;46650;-77
2023/06/29 08:35:39;;;;;;;;;33.00;30.33;;;;;;;;5058965;28;45350;-77
2023/06/29 08:38:05;;;;;;;;;36.00;32.00;;;;;;;;5059201;28;45957;-76
2023/06/29 08:40:31;;;;;;;;;38.00;32.67;;;;;;;;5040494;28;45328;-73
2023/06/29 08:42:56;;;;;;;;;36.33;31.67;;;;;;;;5063189;28;45407;-75
2023/06/29 08:45:21;;;;;;;;;42.00;35.33;;;;;;;;5080277;28;45398;-77
2023/06/29 08:47:49;;;;;;;;;38.00;32.33;;;;;;;;5080255;28;45243;-77
2023/06/29 08:50:14;;;;;;;;;32.33;30.33;;;;;;;;5078555;28;45484;-78
2023/06/29 08:52:40;;;;;;;;;34.33;30.67;;;;;;;;5069252;28;47597;-78
2023/06/29 08:55:06;;;;;;;;;40.00;33.67;;;;;;;;5087275;28;45255;-78
2023/06/29 08:57:35;;;;;;;;;35.33;31.33;;;;;;;;5078771;28;45497;-80
2023/06/29 09:00:04;;;;;;;;;36.67;32.00;;;;;;;;5078516;28;45478;-79
2023/06/29 09:02:30;;;;;;;;;40.67;34.33;;;;;;;;5069593;27;47220;-79
2023/06/29 09:04:55;;;;;;;;;39.67;33.00;;;;;;;;5080991;27;45184;-79
2023/06/29 09:07:21;;;;;;;;;41.33;35.33;;;;;;;;5061945;28;45335;-80
2023/06/29 09:09:46;;;;;;;;;38.33;32.33;;;;;;;;5061459;28;46348;-79
2023/06/29 09:12:11;;;;;;;;;37.00;32.33;;;;;;;;5084421;27;46398;-80
2023/06/29 09:14:48;;;;;;;;;39.67;32.67;;;;;;;;5100242;27;45262;-81
2023/06/29 09:17:14;;;;;;;;;36.33;31.33;;;;;;;;5081959;27;45419;-81
2023/06/29 09:19:42;;;;;;;;;37.00;32.33;;;;;;;;5082028;27;47472;-78
2023/06/29 09:22:07;;;;;;;;;40.33;33.00;;;;;;;;5099727;27;45376;-76
2023/06/29 09:24:33;;;;;;;;;39.33;33.67;;;;;;;;5081166;27;45587;-77
2023/06/29 09:26:59;;;;;;;;;33.67;29.00;;;;;;;;5062742;28;45262;-75
2023/06/29 09:29:24;;;;;;;;;34.33;30.67;;;;;;;;5072352;27;46149;-76
2023/06/29 09:31:53;;;;;;;;;31.00;29.00;;;;;;;;5083149;27;47147;-78
2023/06/29 09:34:22;;;;;;;;;33.67;30.00;;;;;;;;5091420;27;45356;-74
2023/06/29 09:36:47;;;;;;;;;34.00;31.33;;;;;;;;5061057;28;45518;-75
2023/06/29 09:39:13;;;;;;;;;51.67;39.33;;;;;;;;5081397;28;45285;-75
2023/06/29 09:41:47;;;;;;;;;44.67;34.33;;;;;;;;5081800;27;45889;-74
2023/06/29 09:44:13;;;;;;;;;43.67;36.00;;;;;;;;5061326;28;45455;-75
2023/06/29 09:46:41;;;;;;;;;42.00;33.00;;;;;;;;5082969;27;45736;-73
2023/06/29 09:49:09;;;;;;;;;38.00;32.33;;;;;;;;5082233;28;45309;-74
2023/06/29 09:51:35;;;;;;;;;42.33;35.00;;;;;;;;5083409;27;45437;-74
2023/06/29 09:54:01;;;;;;;;;46.33;37.33;;;;;;;;5082705;28;45249;-74
2023/06/29 09:56:27;;;;;;;;;37.00;31.67;;;;;;;;5082631;28;45366;-73
2023/06/29 09:58:53;;;;;;;;;38.00;33.00;;;;;;;;5080414;28;45231;-73
2023/06/29 10:01:18;;;;;;;;;40.33;34.33;;;;;;;;5081969;28;45405;-74
2023/06/29 10:03:43;;;;;;;;;36.00;31.00;;;;;;;;5081141;27;45323;-73
2023/06/29 10:06:11;;;;;;;;;35.67;30.33;;;;;;;;5063495;28;45496;-74
2023/06/29 10:08:39;;;;;;;;;36.00;31.67;;;;;;;;5064106;28;46389;-72
2023/06/29 10:11:05;;;;;;;;;35.67;31.67;;;;;;;;5081589;28;45912;-73
2023/06/29 10:13:34;;;;;;;;;34.00;30.00;;;;;;;;5064054;28;46701;-74
2023/06/29 10:16:01;;;;;;;;;37.00;30.33;;;;;;;;5082318;28;45220;-75
2023/06/29 10:18:28;;;;;;;;;35.67;31.33;;;;;;;;5082546;28;45273;-74
2023/06/29 10:20:54;;;;;;;;;39.33;33.33;;;;;;;;5064016;28;48368;-74
2023/06/29 10:23:20;;;;;;;;;36.33;31.67;;;;;;;;5082394;28;45528;-74
2023/06/29 10:25:48;;;;;;;;;37.67;32.33;;;;;;;;5082368;28;45393;-74
2023/06/29 10:28:14;;;;;;;;;38.00;33.33;;;;;;;;5082277;28;45285;-74
2023/06/29 10:30:44;;;;;;;;;39.67;31.33;;;;;;;;5083745;27;46858;-74
2023/06/29 10:33:09;;;;;;;;;33.67;30.33;;;;;;;;5084226;27;45383;-73
2023/06/29 10:35:35;;;;;;;;;35.67;32.33;;;;;;;;5093364;27;45531;-75
2023/06/29 10:38:07;;;;;;;;;36.33;31.33;;;;;;;;5082071;28;45321;-74
2023/06/29 10:40:34;;;;;;;;;37.67;33.33;;;;;;;;5081383;28;45331;-75
2023/06/29 10:42:59;;;;;;;;;38.67;33.00;;;;;;;;5049157;28;45451;-75
2023/06/29 10:45:24;;;;;;;;;39.00;33.33;;;;;;;;5040346;28;45391;-74
2023/06/29 10:47:55;;;;;;;;;37.33;33.00;;;;;;;;5025494;28;47084;-75
2023/06/29 10:50:24;;;;;;;;;43.00;35.33;;;;;;;;5019007;28;48401;-74
2023/06/29 10:52:49;;;;;;;;;40.00;33.33;;;;;;;;5021561;28;45402;-74
2023/06/29 10:55:19;;;;;;;;;40.00;34.00;;;;;;;;5036555;28;45360;-74
2023/06/29 10:57:45;;;;;;;;;42.00;34.00;;;;;;;;5041767;28;45205;-75
2023/06/29 11:00:11;;;;;;;;;27.67;25.33;;;;;;;;5041273;28;46919;-75
2023/06/29 11:02:39;;;;;;;;;41.00;34.00;;;;;;;;5040900;28;45233;-75
2023/06/29 11:05:04;;;;;;;;;42.33;34.67;;;;;;;;5041786;28;45363;-74
2023/06/29 11:07:30;;;;;;;;;40.33;34.67;;;;;;;;5041259;28;45338;-75
2023/06/29 11:10:01;;;;;;;;;38.33;33.67;;;;;;;;5041168;28;45444;-76
2023/06/29 11:12:26;;;;;;;;;38.00;33.67;;;;;;;;5041627;28;46353;-75
2023/06/29 11:14:52;;;;;;;;;42.33;35.33;;;;;;;;5036979;28;45383;-74
2023/06/29 11:17:17;;;;;;;;;44.00;35.67;;;;;;;;5039411;28;45549;-75
2023/06/29 11:19:44;;;;;;;;;42.00;35.67;;;;;;;;5035237;28;45601;-74
2023/06/29 11:22:09;;;;;;;;;43.33;38.00;;;;;;;;5039226;28;46179;-75
2023/06/29 11:24:35;;;;;;;;;45.00;37.00;;;;;;;;5041258;28;45292;-75
2023/06/29 11:27:01;;;;;;;;;44.33;36.33;;;;;;;;5040156;28;45491;-76
2023/06/29 11:29:30;;;;;;;;;41.33;35.00;;;;;;;;5036124;28;46281;-75
2023/06/29 11:31:55;;;;;;;;;47.33;38.33;;;;;;;;5038254;28;45543;-80
2023/06/29 11:34:21;;;;;;;;;44.67;37.67;;;;;;;;5040079;28;45366;-74
2023/06/29 11:36:47;;;;;;;;;47.67;39.33;;;;;;;;5041405;28;45327;-75
2023/06/29 11:39:12;;;;;;;;;43.00;35.67;;;;;;;;5039002;28;47579;-75
2023/06/29 11:41:38;;;;;;;;;46.33;39.00;;;;;;;;5039141;28;45320;-75
2023/06/29 11:44:04;;;;;;;;;44.67;37.33;;;;;;;;5041358;28;45358;-75
2023/06/29 11:46:35;;;;;;;;;48.33;39.67;;;;;;;;5038994;28;46213;-75
2023/06/29 11:49:02;;;;;;;;;45.67;38.67;;;;;;;;5038593;28;45533;-75
2023/06/29 11:51:28;;;;;;;;;44.67;37.67;;;;;;;;5039007;28;45378;-75
2023/06/29 11:53:55;;;;;;;;;47.67;37.67;;;;;;;;5040514;28;45391;-74
2023/06/29 11:56:33;;;;;;;;;47.33;39.33;;;;;;;;5040606;28;45452;-74
2023/06/29 11:59:03;;;;;;;;;45.00;38.00;;;;;;;;5040143;28;45299;-74
2023/06/29 12:01:31;;;;;;;;;49.00;40.00;;;;;;;;5038671;28;45481;-74
2023/06/29 12:03:56;;;;;;;;;42.67;36.00;;;;;;;;5039277;28;45379;-74
2023/06/29 12:06:21;;;;;;;;;47.00;38.67;;;;;;;;5040183;28;45338;-74
2023/06/29 12:08:50;;;;;;;;;47.67;40.00;;;;;;;;5040326;28;45425;-74
2023/06/29 12:11:16;;;;;;;;;46.00;38.00;;;;;;;;5039021;28;45317;-74
2023/06/29 12:13:50;;;;;;;;;45.67;38.33;;;;;;;;5039315;28;45272;-75
2023/06/29 12:16:16;;;;;;;;;45.67;38.67;;;;;;;;5039733;28;45560;-75
2023/06/29 12:18:41;;;;;;;;;45.33;38.67;;;;;;;;5038880;28;45271;-74
2023/06/29 12:21:07;;;;;;;;;47.00;39.00;;;;;;;;5041117;28;45245;-76
2023/06/29 12:23:32;;;;;;;;;50.33;41.00;;;;;;;;5040313;28;45323;-76
2023/06/29 12:26:00;;;;;;;;;48.00;38.67;;;;;;;;5040094;28;45434;-75
2023/06/29 12:28:28;;;;;;;;;47.00;39.00;;;;;;;;5040845;28;45453;-75
2023/06/29 12:30:53;;;;;;;;;46.67;39.00;;;;;;;;5039177;28;45369;-75
2023/06/29 12:33:22;;;;;;;;;42.33;36.67;;;;;;;;5038558;28;45363;-76
2023/06/29 12:35:47;;;;;;;;;47.33;38.00;;;;;;;;5039922;28;46292;-75
2023/06/29 12:38:12;;;;;;;;;47.33;38.33;;;;;;;;5042196;28;46072;-75
2023/06/29 12:40:37;;;;;;;;;49.33;40.67;;;;;;;;5041719;28;44928;-74
2023/06/29 12:43:03;;;;;;;;;48.00;40.00;;;;;;;;5051291;28;45424;-75
2023/06/29 12:45:28;;;;;;;;;52.33;42.00;;;;;;;;5065106;28;47327;-75
2023/06/29 12:47:54;;;;;;;;;45.00;38.00;;;;;;;;5082326;28;46318;-74
2023/06/29 12:50:19;;;;;;;;;49.00;41.67;;;;;;;;5063379;28;45318;-74
2023/06/29 12:52:48;;;;;;;;;47.67;39.33;;;;;;;;5081047;28;45248;-75
2023/06/29 12:55:14;;;;;;;;;44.33;37.67;;;;;;;;5065580;28;46861;-75
2023/06/29 12:57:41;;;;;;;;;51.00;41.33;;;;;;;;5062938;28;48591;-76
2023/06/29 13:00:07;;;;;;;;;50.67;41.00;;;;;;;;5083448;28;45358;-74
2023/06/29 13:02:33;;;;;;;;;53.00;43.33;;;;;;;;5086730;27;45346;-74
2023/06/29 13:05:03;;;;;;;;;48.67;40.67;;;;;;;;5079516;28;45310;-80
2023/06/29 13:07:29;;;;;;;;;52.33;42.33;;;;;;;;5060795;28;45960;-76
2023/06/29 13:09:56;;;;;;;;;50.67;42.00;;;;;;;;5055460;28;45812;-80
2023/06/29 13:12:22;;;;;;;;;51.67;42.67;;;;;;;;5059648;28;45488;-77
2023/06/29 13:14:49;;;;;;;;;53.00;43.67;;;;;;;;5077691;28;45819;-77
2023/06/29 13:17:19;;;;;;;;;52.67;42.33;;;;;;;;5061233;28;47076;-77
2023/06/29 13:19:45;;;;;;;;;53.00;43.33;;;;;;;;5057372;28;45693;-76
2023/06/29 13:22:12;;;;;;;;;53.67;43.67;;;;;;;;5058999;28;45528;-76
2023/06/29 13:24:38;;;;;;;;;52.00;42.67;;;;;;;;5059625;28;46063;-75
2023/06/29 13:27:03;;;;;;;;;52.33;43.33;;;;;;;;5060635;28;46991;-75
2023/06/29 13:29:29;;;;;;;;;52.33;43.67;;;;;;;;5087431;27;45720;-75
2023/06/29 13:31:54;;;;;;;;;52.00;42.00;;;;;;;;5100083;27;45325;-77
2023/06/29 13:34:20;;;;;;;;;55.00;44.00;;;;;;;;5091306;27;45317;-76
2023/06/29 13:36:45;;;;;;;;;51.67;43.00;;;;;;;;5083209;28;46115;-77
2023/06/29 13:39:11;;;;;;;;;53.33;43.33;;;;;;;;5087997;28;45311;-76
2023/06/29 13:41:37;;;;;;;;;52.33;43.00;;;;;;;;5087198;28;45169;-76
2023/06/29 13:44:05;;;;;;;;;55.00;45.00;;;;;;;;5065492;28;45586;-75
2023/06/29 13:46:31;;;;;;;;;51.67;42.33;;;;;;;;5062716;28;46907;-76
2023/06/29 13:48:56;;;;;;;;;53.67;43.33;;;;;;;;5062270;28;45387;-78
2023/06/29 13:51:22;;;;;;;;;54.00;44.00;;;;;;;;5072598;28;45474;-77
2023/06/29 13:53:48;;;;;;;;;55.00;45.00;;;;;;;;5058928;28;45291;-76
2023/06/29 13:56:13;;;;;;;;;51.00;42.00;;;;;;;;5058866;28;45292;-77
2023/06/29 13:58:38;;;;;;;;;54.67;44.00;;;;;;;;5040672;28;45990;-77
2023/06/29 14:01:03;;;;;;;;;52.33;43.00;;;;;;;;5052181;28;45297;-77
2023/06/29 14:03:28;;;;;;;;;52.33;43.33;;;;;;;;5059449;28;47385;-77
2023/06/29 14:05:54;;;;;;;;;51.67;41.67;;;;;;;;5074581;28;45471;-77
2023/06/29 14:08:19;;;;;;;;;53.00;43.33;;;;;;;;5057770;28;45494;-77